sensor_id;sensor_type;location;lat;lon;timestamp;pressure;altitude;pressure_sealevel;temperature
18782;BMP180;9519;51.890;8.970;2022-12-18T00:03:23;97461.00;;;-8.30
18782;BMP180;9519;51.890;8.970;2022-12-18T00:08:25;97429.00;;;-8.30
18782;BMP180;9519;51.890;8.970;2022-12-18T00:13:29;96537.00;;;-8.30
18782;BMP180;9519;51.890;8.970;2022-12-18T00:18:31;97367.00;;;-8.30
18782;BMP180;9519;51.890;8.970;2022-12-18T00:23:36;96530.00;;;-8.30
18782;BMP180;9519;51.890;8.970;2022-12-18T00:28:40;96522.00;;;-8.40
18782;BMP180;9519;51.890;8.970;2022-12-18T00:33:42;97423.00;;;-8.40
18782;BMP180;9519;51.890;8.970;2022-12-18T00:38:46;97422.00;;;-8.40
18782;BMP180;9519;51.890;8.970;2022-12-18T00:43:49;96519.00;;;-8.50
18782;BMP180;9519;51.890;8.970;2022-12-18T00:48:52;97443.00;;;-8.50
18782;BMP180;9519;51.890;8.970;2022-12-18T00:53:55;97315.00;;;-8.50
18782;BMP180;9519;51.890;8.970;2022-12-18T00:58:58;96609.00;;;-8.50
18782;BMP180;9519;51.890;8.970;2022-12-18T01:04:01;96977.00;;;-8.50
18782;BMP180;9519;51.890;8.970;2022-12-18T01:09:04;97307.00;;;-8.50
18782;BMP180;9519;51.890;8.970;2022-12-18T01:14:08;96551.00;;;-8.50
18782;BMP180;9519;51.890;8.970;2022-12-18T01:19:13;97427.00;;;-8.40
18782;BMP180;9519;51.890;8.970;2022-12-18T01:24:15;97369.00;;;-8.50
18782;BMP180;9519;51.890;8.970;2022-12-18T01:29:19;96526.00;;;-8.50
18782;BMP180;9519;51.890;8.970;2022-12-18T01:34:21;97269.00;;;-8.60
18782;BMP180;9519;51.890;8.970;2022-12-18T01:39:24;97286.00;;;-8.60
18782;BMP180;9519;51.890;8.970;2022-12-18T01:45:04;96396.00;;;-8.60
18782;BMP180;9519;51.890;8.970;2022-12-18T01:50:11;96849.00;;;-8.70
18782;BMP180;9519;51.890;8.970;2022-12-18T01:55:21;96891.00;;;-8.70
18782;BMP180;9519;51.890;8.970;2022-12-18T02:00:26;96772.00;;;-8.70
18782;BMP180;9519;51.890;8.970;2022-12-18T02:05:41;96727.00;;;-8.70
18782;BMP180;9519;51.890;8.970;2022-12-18T02:10:54;96712.00;;;-8.70
18782;BMP180;9519;51.890;8.970;2022-12-18T02:16:08;96823.00;;;-8.70
18782;BMP180;9519;51.890;8.970;2022-12-18T02:21:27;96634.00;;;-8.90
18782;BMP180;9519;51.890;8.970;2022-12-18T02:26:37;96707.00;;;-8.90
18782;BMP180;9519;51.890;8.970;2022-12-18T02:31:50;96315.00;;;-8.90
18782;BMP180;9519;51.890;8.970;2022-12-18T02:36:54;96387.00;;;-8.80
18782;BMP180;9519;51.890;8.970;2022-12-18T02:42:00;96658.00;;;-8.80
18782;BMP180;9519;51.890;8.970;2022-12-18T02:47:11;96681.00;;;-8.80
18782;BMP180;9519;51.890;8.970;2022-12-18T02:52:31;96156.00;;;-8.80
18782;BMP180;9519;51.890;8.970;2022-12-18T02:57:45;96690.00;;;-8.70
18782;BMP180;9519;51.890;8.970;2022-12-18T03:02:55;96767.00;;;-8.70
18782;BMP180;9519;51.890;8.970;2022-12-18T03:08:06;96856.00;;;-8.70
18782;BMP180;9519;51.890;8.970;2022-12-18T03:13:14;96838.00;;;-8.70
18782;BMP180;9519;51.890;8.970;2022-12-18T03:18:24;96706.00;;;-8.70
18782;BMP180;9519;51.890;8.970;2022-12-18T03:23:33;96520.00;;;-8.70
18782;BMP180;9519;51.890;8.970;2022-12-18T03:28:43;96787.00;;;-8.60
18782;BMP180;9519;51.890;8.970;2022-12-18T03:33:53;96794.00;;;-8.60
18782;BMP180;9519;51.890;8.970;2022-12-18T03:38:58;96301.00;;;-8.60
18782;BMP180;9519;51.890;8.970;2022-12-18T03:44:11;96766.00;;;-8.50
18782;BMP180;9519;51.890;8.970;2022-12-18T03:49:23;96958.00;;;-8.40
18782;BMP180;9519;51.890;8.970;2022-12-18T03:54:29;96940.00;;;-8.40
18782;BMP180;9519;51.890;8.970;2022-12-18T03:59:35;96512.00;;;-8.40
18782;BMP180;9519;51.890;8.970;2022-12-18T04:04:40;96849.00;;;-8.30
18782;BMP180;9519;51.890;8.970;2022-12-18T04:09:42;97509.00;;;-8.30
18782;BMP180;9519;51.890;8.970;2022-12-18T04:14:46;96470.00;;;-8.30
18782;BMP180;9519;51.890;8.970;2022-12-18T04:19:49;97487.00;;;-8.30
18782;BMP180;9519;51.890;8.970;2022-12-18T04:24:51;97466.00;;;-8.20
18782;BMP180;9519;51.890;8.970;2022-12-18T04:29:55;96735.00;;;-8.20
18782;BMP180;9519;51.890;8.970;2022-12-18T04:34:57;97546.00;;;-8.10
18782;BMP180;9519;51.890;8.970;2022-12-18T04:39:59;97589.00;;;-8.20
18782;BMP180;9519;51.890;8.970;2022-12-18T04:45:04;97132.00;;;-8.20
18782;BMP180;9519;51.890;8.970;2022-12-18T04:50:07;97518.00;;;-8.10
18782;BMP180;9519;51.890;8.970;2022-12-18T04:55:09;97471.00;;;-8.10
18782;BMP180;9519;51.890;8.970;2022-12-18T05:00:14;97032.00;;;-8.10
18782;BMP180;9519;51.890;8.970;2022-12-18T05:05:17;97461.00;;;-8.20
18782;BMP180;9519;51.890;8.970;2022-12-18T05:10:19;97501.00;;;-8.20
18782;BMP180;9519;51.890;8.970;2022-12-18T05:15:24;97089.00;;;-8.20
18782;BMP180;9519;51.890;8.970;2022-12-18T05:20:27;97000.00;;;-8.20
18782;BMP180;9519;51.890;8.970;2022-12-18T05:25:30;97461.00;;;-8.20
18782;BMP180;9519;51.890;8.970;2022-12-18T05:30:33;96702.00;;;-8.20
18782;BMP180;9519;51.890;8.970;2022-12-18T05:35:35;97478.00;;;-8.20
18782;BMP180;9519;51.890;8.970;2022-12-18T05:40:41;97486.00;;;-8.20
18782;BMP180;9519;51.890;8.970;2022-12-18T05:45:44;96191.00;;;-8.20
18782;BMP180;9519;51.890;8.970;2022-12-18T05:50:49;97073.00;;;-8.30
18782;BMP180;9519;51.890;8.970;2022-12-18T05:55:51;97484.00;;;-8.30
18782;BMP180;9519;51.890;8.970;2022-12-18T06:00:55;96156.00;;;-8.30
18782;BMP180;9519;51.890;8.970;2022-12-18T06:05:57;97456.00;;;-8.40
18782;BMP180;9519;51.890;8.970;2022-12-18T06:10:59;97292.00;;;-8.40
18782;BMP180;9519;51.890;8.970;2022-12-18T06:16:04;96990.00;;;-8.50
18782;BMP180;9519;51.890;8.970;2022-12-18T06:21:07;97272.00;;;-8.50
18782;BMP180;9519;51.890;8.970;2022-12-18T06:26:12;96576.00;;;-8.50
18782;BMP180;9519;51.890;8.970;2022-12-18T06:31:15;96454.00;;;-8.50
18782;BMP180;9519;51.890;8.970;2022-12-18T06:36:18;97363.00;;;-8.50
18782;BMP180;9519;51.890;8.970;2022-12-18T06:41:21;96557.00;;;-8.50
18782;BMP180;9519;51.890;8.970;2022-12-18T06:46:24;96511.00;;;-8.40
18782;BMP180;9519;51.890;8.970;2022-12-18T06:51:27;97450.00;;;-8.50
18782;BMP180;9519;51.890;8.970;2022-12-18T06:56:29;97306.00;;;-8.40
18782;BMP180;9519;51.890;8.970;2022-12-18T07:01:33;96458.00;;;-8.30
18782;BMP180;9519;51.890;8.970;2022-12-18T07:06:35;97457.00;;;-8.20
18782;BMP180;9519;51.890;8.970;2022-12-18T07:11:38;97520.00;;;-8.20
18782;BMP180;9519;51.890;8.970;2022-12-18T07:16:41;96552.00;;;-8.10
18782;BMP180;9519;51.890;8.970;2022-12-18T07:21:44;97481.00;;;-8.10
18782;BMP180;9519;51.890;8.970;2022-12-18T07:26:46;97531.00;;;-8.00
18782;BMP180;9519;51.890;8.970;2022-12-18T07:31:50;96753.00;;;-8.00
18782;BMP180;9519;51.890;8.970;2022-12-18T07:36:52;97525.00;;;-7.90
18782;BMP180;9519;51.890;8.970;2022-12-18T07:41:54;97608.00;;;-7.90
18782;BMP180;9519;51.890;8.970;2022-12-18T07:47:12;96729.00;;;-7.90
18782;BMP180;9519;51.890;8.970;2022-12-18T07:52:14;97495.00;;;-7.90
18782;BMP180;9519;51.890;8.970;2022-12-18T07:57:18;96790.00;;;-7.80
18782;BMP180;9519;51.890;8.970;2022-12-18T08:02:21;96727.00;;;-7.80
18782;BMP180;9519;51.890;8.970;2022-12-18T08:07:24;97598.00;;;-7.80
18782;BMP180;9519;51.890;8.970;2022-12-18T08:12:26;97623.00;;;-7.80
18782;BMP180;9519;51.890;8.970;2022-12-18T08:17:29;96791.00;;;-7.70
18782;BMP180;9519;51.890;8.970;2022-12-18T08:22:34;97354.00;;;-7.70
18782;BMP180;9519;51.890;8.970;2022-12-18T08:27:37;97719.00;;;-7.70
18782;BMP180;9519;51.890;8.970;2022-12-18T08:32:41;96833.00;;;-7.60
18782;BMP180;9519;51.890;8.970;2022-12-18T08:37:43;97832.00;;;-7.50
18782;BMP180;9519;51.890;8.970;2022-12-18T08:42:45;97899.00;;;-7.40
18782;BMP180;9519;51.890;8.970;2022-12-18T08:48:06;96899.00;;;-7.40
18782;BMP180;9519;51.890;8.970;2022-12-18T08:53:09;97960.00;;;-7.20
18782;BMP180;9519;51.890;8.970;2022-12-18T08:58:11;97935.00;;;-7.20
18782;BMP180;9519;51.890;8.970;2022-12-18T09:03:17;97533.00;;;-7.20
18782;BMP180;9519;51.890;8.970;2022-12-18T09:08:20;97918.00;;;-7.10
18782;BMP180;9519;51.890;8.970;2022-12-18T09:13:22;98023.00;;;-6.90
18782;BMP180;9519;51.890;8.970;2022-12-18T09:18:26;97287.00;;;-6.80
18782;BMP180;9519;51.890;8.970;2022-12-18T09:23:28;98132.00;;;-6.80
18782;BMP180;9519;51.890;8.970;2022-12-18T09:28:30;98194.00;;;-6.70
18782;BMP180;9519;51.890;8.970;2022-12-18T09:33:34;97437.00;;;-6.70
18782;BMP180;9519;51.890;8.970;2022-12-18T09:38:37;98159.00;;;-6.60
18782;BMP180;9519;51.890;8.970;2022-12-18T09:43:46;97797.00;;;-6.40
18782;BMP180;9519;51.890;8.970;2022-12-18T09:48:54;97893.00;;;-6.40
18782;BMP180;9519;51.890;8.970;2022-12-18T09:54:03;97873.00;;;-6.20
18782;BMP180;9519;51.890;8.970;2022-12-18T09:59:13;98403.00;;;-6.10
18782;BMP180;9519;51.890;8.970;2022-12-18T10:04:18;97716.00;;;-6.00
18782;BMP180;9519;51.890;8.970;2022-12-18T10:09:30;98074.00;;;-5.90
18782;BMP180;9519;51.890;8.970;2022-12-18T10:14:43;98050.00;;;-5.90
18782;BMP180;9519;51.890;8.970;2022-12-18T10:19:57;97829.00;;;-5.80
18782;BMP180;9519;51.890;8.970;2022-12-18T10:25:12;98127.00;;;-5.70
18782;BMP180;9519;51.890;8.970;2022-12-18T10:30:20;98196.00;;;-5.60
18782;BMP180;9519;51.890;8.970;2022-12-18T10:35:26;98301.00;;;-5.40
18782;BMP180;9519;51.890;8.970;2022-12-18T10:40:29;98619.00;;;-5.40
18782;BMP180;9519;51.890;8.970;2022-12-18T10:45:31;98652.00;;;-5.20
18782;BMP180;9519;51.890;8.970;2022-12-18T10:50:37;98371.00;;;-5.10
18782;BMP180;9519;51.890;8.970;2022-12-18T10:55:44;97938.00;;;-4.90
18782;BMP180;9519;51.890;8.970;2022-12-18T11:01:07;98046.00;;;-4.80
18782;BMP180;9519;51.890;8.970;2022-12-18T11:06:13;98363.00;;;-4.70
18782;BMP180;9519;51.890;8.970;2022-12-18T11:11:21;98288.00;;;-4.60
18782;BMP180;9519;51.890;8.970;2022-12-18T11:16:23;98804.00;;;-4.50
18782;BMP180;9519;51.890;8.970;2022-12-18T11:21:27;98251.00;;;-4.40
18782;BMP180;9519;51.890;8.970;2022-12-18T11:26:34;98413.00;;;-4.30
18782;BMP180;9519;51.890;8.970;2022-12-18T11:31:38;98916.00;;;-4.30
18782;BMP180;9519;51.890;8.970;2022-12-18T11:36:45;98506.00;;;-4.20
18782;BMP180;9519;51.890;8.970;2022-12-18T11:41:54;98528.00;;;-4.20
18782;BMP180;9519;51.890;8.970;2022-12-18T11:47:25;98353.00;;;-4.10
18782;BMP180;9519;51.890;8.970;2022-12-18T11:52:37;98474.00;;;-4.00
18782;BMP180;9519;51.890;8.970;2022-12-18T11:57:49;98440.00;;;-4.00
18782;BMP180;9519;51.890;8.970;2022-12-18T12:03:35;98457.00;;;-3.90
18782;BMP180;9519;51.890;8.970;2022-12-18T12:09:00;98374.00;;;-3.80
18782;BMP180;9519;51.890;8.970;2022-12-18T12:14:38;98347.00;;;-3.70
18782;BMP180;9519;51.890;8.970;2022-12-18T12:19:55;98365.00;;;-3.60
18782;BMP180;9519;51.890;8.970;2022-12-18T12:25:21;98212.00;;;-3.50
18782;BMP180;9519;51.890;8.970;2022-12-18T12:30:36;97833.00;;;-3.50
18782;BMP180;9519;51.890;8.970;2022-12-18T12:35:53;98151.00;;;-3.40
18782;BMP180;9519;51.890;8.970;2022-12-18T12:41:02;98249.00;;;-3.30
18782;BMP180;9519;51.890;8.970;2022-12-18T12:46:07;98069.00;;;-3.20
18782;BMP180;9519;51.890;8.970;2022-12-18T12:51:16;98442.00;;;-3.20
18782;BMP180;9519;51.890;8.970;2022-12-18T12:56:21;98511.00;;;-3.10
18782;BMP180;9519;51.890;8.970;2022-12-18T13:01:34;98527.00;;;-3.10
18782;BMP180;9519;51.890;8.970;2022-12-18T13:06:46;98566.00;;;-3.00
18782;BMP180;9519;51.890;8.970;2022-12-18T13:11:51;98416.00;;;-3.00
18782;BMP180;9519;51.890;8.970;2022-12-18T13:17:28;98534.00;;;-2.90
18782;BMP180;9519;51.890;8.970;2022-12-18T13:22:36;98531.00;;;-2.90
18782;BMP180;9519;51.890;8.970;2022-12-18T13:28:00;98396.00;;;-2.80
18782;BMP180;9519;51.890;8.970;2022-12-18T13:33:47;98469.00;;;-2.80
18782;BMP180;9519;51.890;8.970;2022-12-18T13:39:32;98441.00;;;-2.80
18782;BMP180;9519;51.890;8.970;2022-12-18T13:44:39;98306.00;;;-2.80
18782;BMP180;9519;51.890;8.970;2022-12-18T13:49:43;98207.00;;;-2.80
18782;BMP180;9519;51.890;8.970;2022-12-18T13:54:50;98224.00;;;-2.90
18782;BMP180;9519;51.890;8.970;2022-12-18T13:59:55;98038.00;;;-2.90
18782;BMP180;9519;51.890;8.970;2022-12-18T14:04:57;98004.00;;;-2.90
18782;BMP180;9519;51.890;8.970;2022-12-18T14:10:00;98193.00;;;-2.90
18782;BMP180;9519;51.890;8.970;2022-12-18T14:15:16;98139.00;;;-3.00
18782;BMP180;9519;51.890;8.970;2022-12-18T14:20:24;98089.00;;;-2.90
18782;BMP180;9519;51.890;8.970;2022-12-18T14:25:28;98169.00;;;-2.90
18782;BMP180;9519;51.890;8.970;2022-12-18T14:30:36;98171.00;;;-2.90
18782;BMP180;9519;51.890;8.970;2022-12-18T14:35:42;98273.00;;;-2.80
18782;BMP180;9519;51.890;8.970;2022-12-18T14:40:44;98671.00;;;-2.70
18782;BMP180;9519;51.890;8.970;2022-12-18T14:45:49;97983.00;;;-2.70
18782;BMP180;9519;51.890;8.970;2022-12-18T14:51:00;98293.00;;;-2.70
18782;BMP180;9519;51.890;8.970;2022-12-18T14:56:13;98348.00;;;-2.70
18782;BMP180;9519;51.890;8.970;2022-12-18T15:01:25;98269.00;;;-2.60
18782;BMP180;9519;51.890;8.970;2022-12-18T15:06:34;98469.00;;;-2.60
18782;BMP180;9519;51.890;8.970;2022-12-18T15:11:46;97869.00;;;-2.50
18782;BMP180;9519;51.890;8.970;2022-12-18T15:16:53;98291.00;;;-2.50
18782;BMP180;9519;51.890;8.970;2022-12-18T15:21:55;98340.00;;;-2.50
18782;BMP180;9519;51.890;8.970;2022-12-18T15:26:57;98868.00;;;-2.40
18782;BMP180;9519;51.890;8.970;2022-12-18T15:32:05;98472.00;;;-2.40
18782;BMP180;9519;51.890;8.970;2022-12-18T15:37:07;98777.00;;;-2.50
18782;BMP180;9519;51.890;8.970;2022-12-18T15:42:10;98129.00;;;-2.50
18782;BMP180;9519;51.890;8.970;2022-12-18T15:47:31;98132.00;;;-2.50
18782;BMP180;9519;51.890;8.970;2022-12-18T15:52:40;98184.00;;;-2.40
18782;BMP180;9519;51.890;8.970;2022-12-18T15:57:43;98639.00;;;-2.40
18782;BMP180;9519;51.890;8.970;2022-12-18T16:02:46;98137.00;;;-2.40
18782;BMP180;9519;51.890;8.970;2022-12-18T16:07:48;98189.00;;;-2.40
18782;BMP180;9519;51.890;8.970;2022-12-18T16:12:50;98886.00;;;-2.40
18782;BMP180;9519;51.890;8.970;2022-12-18T16:17:54;98364.00;;;-2.30
18782;BMP180;9519;51.890;8.970;2022-12-18T16:22:56;98816.00;;;-2.30
18782;BMP180;9519;51.890;8.970;2022-12-18T16:27:59;98871.00;;;-2.30
18782;BMP180;9519;51.890;8.970;2022-12-18T16:33:02;98329.00;;;-2.30
18782;BMP180;9519;51.890;8.970;2022-12-18T16:38:04;98814.00;;;-2.30
18782;BMP180;9519;51.890;8.970;2022-12-18T16:43:07;98814.00;;;-2.20
18782;BMP180;9519;51.890;8.970;2022-12-18T16:48:10;98284.00;;;-2.30
18782;BMP180;9519;51.890;8.970;2022-12-18T16:53:12;98780.00;;;-2.30
18782;BMP180;9519;51.890;8.970;2022-12-18T16:58:15;98767.00;;;-2.30
18782;BMP180;9519;51.890;8.970;2022-12-18T17:03:18;98245.00;;;-2.30
18782;BMP180;9519;51.890;8.970;2022-12-18T17:08:21;98779.00;;;-2.30
18782;BMP180;9519;51.890;8.970;2022-12-18T17:13:26;98192.00;;;-2.30
18782;BMP180;9519;51.890;8.970;2022-12-18T17:18:29;98057.00;;;-2.20
18782;BMP180;9519;51.890;8.970;2022-12-18T17:23:32;98782.00;;;-2.30
18782;BMP180;9519;51.890;8.970;2022-12-18T17:28:35;98753.00;;;-2.30
18782;BMP180;9519;51.890;8.970;2022-12-18T17:33:39;98225.00;;;-2.30
18782;BMP180;9519;51.890;8.970;2022-12-18T17:38:41;98764.00;;;-2.30
18782;BMP180;9519;51.890;8.970;2022-12-18T17:43:50;98469.00;;;-2.30
18782;BMP180;9519;51.890;8.970;2022-12-18T17:48:56;98449.00;;;-2.30
18782;BMP180;9519;51.890;8.970;2022-12-18T17:53:59;97912.00;;;-2.30
18782;BMP180;9519;51.890;8.970;2022-12-18T17:59:01;98795.00;;;-2.30
18782;BMP180;9519;51.890;8.970;2022-12-18T18:04:04;98214.00;;;-2.30
18782;BMP180;9519;51.890;8.970;2022-12-18T18:09:07;98810.00;;;-2.30
18782;BMP180;9519;51.890;8.970;2022-12-18T18:14:15;98481.00;;;-2.40
18782;BMP180;9519;51.890;8.970;2022-12-18T18:19:22;98432.00;;;-2.40
18782;BMP180;9519;51.890;8.970;2022-12-18T18:24:25;98815.00;;;-2.40
18782;BMP180;9519;51.890;8.970;2022-12-18T18:29:29;98265.00;;;-2.40
18782;BMP180;9519;51.890;8.970;2022-12-18T18:34:33;98305.00;;;-2.40
18782;BMP180;9519;51.890;8.970;2022-12-18T18:39:35;98316.00;;;-2.40
18782;BMP180;9519;51.890;8.970;2022-12-18T18:44:37;98288.00;;;-2.40
18782;BMP180;9519;51.890;8.970;2022-12-18T18:49:41;98182.00;;;-2.50
18782;BMP180;9519;51.890;8.970;2022-12-18T18:54:43;98783.00;;;-2.50
18782;BMP180;9519;51.890;8.970;2022-12-18T18:59:47;98748.00;;;-2.50
18782;BMP180;9519;51.890;8.970;2022-12-18T19:04:51;98218.00;;;-2.50
18782;BMP180;9519;51.890;8.970;2022-12-18T19:09:53;98231.00;;;-2.50
18782;BMP180;9519;51.890;8.970;2022-12-18T19:14:55;98739.00;;;-2.50
18782;BMP180;9519;51.890;8.970;2022-12-18T19:19:58;98205.00;;;-2.50
18782;BMP180;9519;51.890;8.970;2022-12-18T19:25:01;98683.00;;;-2.60
18782;BMP180;9519;51.890;8.970;2022-12-18T19:30:04;98390.00;;;-2.60
18782;BMP180;9519;51.890;8.970;2022-12-18T19:35:09;98134.00;;;-2.60
18782;BMP180;9519;51.890;8.970;2022-12-18T19:40:11;98692.00;;;-2.60
18782;BMP180;9519;51.890;8.970;2022-12-18T19:45:14;98681.00;;;-2.60
18782;BMP180;9519;51.890;8.970;2022-12-18T19:50:17;98072.00;;;-2.70
18782;BMP180;9519;51.890;8.970;2022-12-18T19:55:19;98620.00;;;-2.70
18782;BMP180;9519;51.890;8.970;2022-12-18T20:00:22;98622.00;;;-2.80
18782;BMP180;9519;51.890;8.970;2022-12-18T20:05:25;98075.00;;;-2.80
18782;BMP180;9519;51.890;8.970;2022-12-18T20:10:28;98648.00;;;-2.80
18782;BMP180;9519;51.890;8.970;2022-12-18T20:15:32;98607.00;;;-2.80
18782;BMP180;9519;51.890;8.970;2022-12-18T20:20:35;98015.00;;;-2.80
18782;BMP180;9519;51.890;8.970;2022-12-18T20:25:38;98644.00;;;-2.80
18782;BMP180;9519;51.890;8.970;2022-12-18T20:30:41;98620.00;;;-2.80
18782;BMP180;9519;51.890;8.970;2022-12-18T20:35:44;98007.00;;;-2.90
18782;BMP180;9519;51.890;8.970;2022-12-18T20:40:46;98621.00;;;-2.90
18782;BMP180;9519;51.890;8.970;2022-12-18T20:45:49;98618.00;;;-2.90
18782;BMP180;9519;51.890;8.970;2022-12-18T20:50:58;98151.00;;;-2.90
18782;BMP180;9519;51.890;8.970;2022-12-18T20:56:04;98216.00;;;-2.90
18782;BMP180;9519;51.890;8.970;2022-12-18T21:01:10;97950.00;;;-3.00
18782;BMP180;9519;51.890;8.970;2022-12-18T21:06:16;98166.00;;;-3.00
18782;BMP180;9519;51.890;8.970;2022-12-18T21:11:27;98014.00;;;-3.00
18782;BMP180;9519;51.890;8.970;2022-12-18T21:16:47;98485.00;;;-3.00
18782;BMP180;9519;51.890;8.970;2022-12-18T21:21:52;98008.00;;;-3.00
18782;BMP180;9519;51.890;8.970;2022-12-18T21:26:54;97876.00;;;-3.00
18782;BMP180;9519;51.890;8.970;2022-12-18T21:31:57;98596.00;;;-2.90
18782;BMP180;9519;51.890;8.970;2022-12-18T21:37:01;98205.00;;;-2.90
18782;BMP180;9519;51.890;8.970;2022-12-18T21:42:04;98554.00;;;-2.90
18782;BMP180;9519;51.890;8.970;2022-12-18T21:47:25;98547.00;;;-2.90
18782;BMP180;9519;51.890;8.970;2022-12-18T21:52:28;97997.00;;;-2.90
18782;BMP180;9519;51.890;8.970;2022-12-18T21:57:31;98527.00;;;-2.90
18782;BMP180;9519;51.890;8.970;2022-12-18T22:02:33;98569.00;;;-2.90
18782;BMP180;9519;51.890;8.970;2022-12-18T22:07:36;97943.00;;;-2.90
18782;BMP180;9519;51.890;8.970;2022-12-18T22:12:39;98560.00;;;-2.80
18782;BMP180;9519;51.890;8.970;2022-12-18T22:17:41;98580.00;;;-2.80
18782;BMP180;9519;51.890;8.970;2022-12-18T22:22:44;98024.00;;;-2.80
18782;BMP180;9519;51.890;8.970;2022-12-18T22:27:47;98600.00;;;-2.80
18782;BMP180;9519;51.890;8.970;2022-12-18T22:33:03;98575.00;;;-2.80
18782;BMP180;9519;51.890;8.970;2022-12-18T22:38:06;98001.00;;;-2.80
18782;BMP180;9519;51.890;8.970;2022-12-18T22:43:09;98574.00;;;-2.80
18782;BMP180;9519;51.890;8.970;2022-12-18T22:48:11;98538.00;;;-2.80
18782;BMP180;9519;51.890;8.970;2022-12-18T22:53:14;97958.00;;;-2.80
18782;BMP180;9519;51.890;8.970;2022-12-18T22:58:17;98510.00;;;-2.70
18782;BMP180;9519;51.890;8.970;2022-12-18T23:03:19;98531.00;;;-2.70
18782;BMP180;9519;51.890;8.970;2022-12-18T23:08:23;97899.00;;;-2.60
18782;BMP180;9519;51.890;8.970;2022-12-18T23:13:26;98255.00;;;-2.60
18782;BMP180;9519;51.890;8.970;2022-12-18T23:18:29;98573.00;;;-2.60
18782;BMP180;9519;51.890;8.970;2022-12-18T23:23:33;98100.00;;;-2.60
18782;BMP180;9519;51.890;8.970;2022-12-18T23:28:36;98641.00;;;-2.50
18782;BMP180;9519;51.890;8.970;2022-12-18T23:33:38;98603.00;;;-2.50
18782;BMP180;9519;51.890;8.970;2022-12-18T23:38:46;98331.00;;;-2.50
18782;BMP180;9519;51.890;8.970;2022-12-18T23:43:49;98672.00;;;-2.40
18782;BMP180;9519;51.890;8.970;2022-12-18T23:48:52;98086.00;;;-2.40
18782;BMP180;9519;51.890;8.970;2022-12-18T23:53:58;98216.00;;;-2.40
18782;BMP180;9519;51.890;8.970;2022-12-18T23:59:01;98723.00;;;-2.30
